createdAt,value
2022-12-01T00:01:22.416Z,85.41
2022-12-01T00:03:49.923Z,85.63
2022-12-01T00:06:19.601Z,85.69
2022-12-01T00:09:06.821Z,85.73
2022-12-01T00:11:35.941Z,85.51
2022-12-01T00:14:04.132Z,85.58
2022-12-01T00:16:31.520Z,85.66
2022-12-01T00:18:58.815Z,85.70
2022-12-01T00:21:27.164Z,85.62
2022-12-01T00:23:56.551Z,85.41
2022-12-01T00:26:24.289Z,85.15
2022-12-01T00:28:52.607Z,85.08
2022-12-01T00:31:22.093Z,85.25
2022-12-01T00:33:50.090Z,84.96
2022-12-01T00:36:17.488Z,84.99
2022-12-01T00:38:44.927Z,84.86
2022-12-01T00:41:12.129Z,85.21
2022-12-01T00:43:39.994Z,85.03
2022-12-01T00:46:07.559Z,85.47
2022-12-01T00:48:34.652Z,85.17
2022-12-01T00:51:02.139Z,85.30
2022-12-01T00:53:29.559Z,85.31
2022-12-01T00:55:56.598Z,85.46
2022-12-01T00:58:24.968Z,85.54
2022-12-01T01:01:00.039Z,85.57
2022-12-01T01:03:28.618Z,86.06
2022-12-01T01:05:55.797Z,86.12
2022-12-01T01:08:23.168Z,86.32
2022-12-01T01:10:50.515Z,86.36
2022-12-01T01:13:18.999Z,86.52
2022-12-01T01:15:46.165Z,86.59
2022-12-01T01:18:13.163Z,86.48
2022-12-01T01:20:40.223Z,86.32
2022-12-01T01:23:07.565Z,86.39
2022-12-01T01:25:34.866Z,86.46
2022-12-01T01:28:01.801Z,86.30
2022-12-01T01:30:29.225Z,86.33
2022-12-01T01:32:56.545Z,86.27
2022-12-01T01:35:23.574Z,86.18
2022-12-01T01:37:51.056Z,86.42
2022-12-01T01:40:19.134Z,86.50
2022-12-01T01:42:46.328Z,86.24
2022-12-01T01:45:24.065Z,86.21
2022-12-01T01:47:53.667Z,86.46
2022-12-01T01:50:25.824Z,86.42
2022-12-01T01:52:59.724Z,86.62
2022-12-01T01:55:28.886Z,86.95
2022-12-01T01:57:56.680Z,86.68
2022-12-01T02:00:24.174Z,86.45
2022-12-01T02:02:52.647Z,86.76
2022-12-01T02:05:23.882Z,86.65
2022-12-01T02:07:53.840Z,87.14
2022-12-01T02:10:24.828Z,87.18
2022-12-01T02:13:03.600Z,87.30
2022-12-01T02:15:46.784Z,87.15
2022-12-01T02:18:29.126Z,86.90
2022-12-01T02:21:07.128Z,87.23
2022-12-01T02:24:11.654Z,87.45
2022-12-01T02:26:44.545Z,87.61
2022-12-01T02:29:23.669Z,87.82
2022-12-01T02:32:00.445Z,88.27
2022-12-01T02:34:55.090Z,88.57
2022-12-01T02:37:36.221Z,88.75
2022-12-01T02:40:11.653Z,89.44
2022-12-01T02:43:06.486Z,88.99
2022-12-01T02:46:07.847Z,88.76
2022-12-01T02:48:38.638Z,89.07
2022-12-01T02:51:22.976Z,89.01
2022-12-01T02:53:52.605Z,88.99
2022-12-01T02:56:22.096Z,88.79
2022-12-01T02:58:50.004Z,88.81
2022-12-01T03:01:32.628Z,88.86
2022-12-01T03:04:02.807Z,88.69
2022-12-01T03:06:35.653Z,88.36
2022-12-01T03:09:18.004Z,88.31
2022-12-01T03:12:06.976Z,88.40
2022-12-01T03:14:54.299Z,88.56
2022-12-01T03:17:28.953Z,88.42
2022-12-01T03:20:03.356Z,88.22
2022-12-01T03:22:40.247Z,88.44
2022-12-01T03:25:09.565Z,88.32
2022-12-01T03:27:41.630Z,88.45
2022-12-01T03:30:12.783Z,88.37
2022-12-01T03:32:49.753Z,88.74
2022-12-01T03:35:24.566Z,88.85
2022-12-01T03:37:57.652Z,88.97
2022-12-01T03:40:28.282Z,88.84
2022-12-01T03:43:01.819Z,88.98
2022-12-01T03:45:41.059Z,89.00
2022-12-01T03:48:08.349Z,88.83
2022-12-01T03:51:04.529Z,88.82
2022-12-01T03:53:47.333Z,88.96
2022-12-01T03:56:18.636Z,89.48
2022-12-01T03:58:48.456Z,89.74
2022-12-01T04:01:15.753Z,89.78
2022-12-01T04:03:45.956Z,89.93
2022-12-01T04:06:13.052Z,90.08
2022-12-01T04:08:40.088Z,90.68
2022-12-01T04:11:32.377Z,91.05
2022-12-01T04:13:59.763Z,91.63
2022-12-01T04:16:26.777Z,92.19
2022-12-01T04:18:54.001Z,92.43
2022-12-01T04:21:24.048Z,92.51
2022-12-01T04:24:03.196Z,93.02
2022-12-01T04:26:34.408Z,92.91
2022-12-01T04:29:04.296Z,93.34
2022-12-01T04:31:31.851Z,93.45
2022-12-01T04:33:59.461Z,93.40
2022-12-01T04:36:29.880Z,93.76
2022-12-01T04:38:57.134Z,93.70
2022-12-01T04:41:24.199Z,93.96
2022-12-01T04:43:54.260Z,93.86
2022-12-01T04:46:24.959Z,93.56
2022-12-01T04:48:52.366Z,93.45
2022-12-01T04:51:19.547Z,93.47
2022-12-01T04:53:46.578Z,93.50
2022-12-01T04:56:13.659Z,93.42
2022-12-01T04:58:41.274Z,92.82
2022-12-01T05:01:12.090Z,93.21
2022-12-01T05:03:41.228Z,93.01
2022-12-01T05:06:12.257Z,93.10
2022-12-01T05:08:39.698Z,93.50
2022-12-01T05:11:08.222Z,93.67
2022-12-01T05:13:40.279Z,94.04
2022-12-01T05:16:14.613Z,94.00
2022-12-01T05:18:42.718Z,95.01
2022-12-01T05:21:11.343Z,95.26
2022-12-01T05:23:39.335Z,95.13
2022-12-01T05:26:08.816Z,95.28
2022-12-01T05:28:36.473Z,95.36
2022-12-01T05:31:03.967Z,95.37
2022-12-01T05:33:31.122Z,95.30
2022-12-01T05:35:58.270Z,95.28
2022-12-01T05:38:25.385Z,94.72
2022-12-01T05:40:54.482Z,94.58
2022-12-01T05:43:28.748Z,94.76
2022-12-01T05:45:57.696Z,94.67
2022-12-01T05:48:25.704Z,94.66
2022-12-01T05:50:52.959Z,94.98
2022-12-01T05:53:20.490Z,94.65
2022-12-01T05:55:52.561Z,94.80
2022-12-01T05:58:22.689Z,94.66
2022-12-01T06:00:50.038Z,94.68
2022-12-01T06:03:17.306Z,94.68
2022-12-01T06:05:45.582Z,94.43
2022-12-01T06:08:12.647Z,94.42
2022-12-01T06:10:39.917Z,94.19
2022-12-01T06:13:06.901Z,93.77
2022-12-01T06:15:34.103Z,93.72
2022-12-01T06:18:01.348Z,93.81
2022-12-01T06:20:28.342Z,94.11
2022-12-01T06:22:55.457Z,93.63
2022-12-01T06:25:22.596Z,93.68
2022-12-01T06:27:49.549Z,93.72
2022-12-01T06:30:16.913Z,93.01
2022-12-01T06:32:44.180Z,92.71
2022-12-01T06:35:11.379Z,92.78
2022-12-01T06:37:38.376Z,92.83
2022-12-01T06:40:06.098Z,92.56
2022-12-01T06:42:34.261Z,92.79
2022-12-01T06:45:01.404Z,92.74
2022-12-01T06:47:30.665Z,92.74
2022-12-01T06:49:57.611Z,92.71
2022-12-01T06:52:24.725Z,92.71
2022-12-01T06:54:51.967Z,92.50
2022-12-01T06:57:19.342Z,91.76
2022-12-01T06:59:46.599Z,91.28
2022-12-01T07:02:14.565Z,90.91
2022-12-01T07:04:41.953Z,90.75
2022-12-01T07:07:09.053Z,90.45
2022-12-01T07:09:36.058Z,89.88
2022-12-01T07:12:03.233Z,89.22
2022-12-01T07:14:31.733Z,88.82
2022-12-01T07:16:59.457Z,88.69
2022-12-01T07:19:26.716Z,88.02
2022-12-01T07:21:53.720Z,87.95
2022-12-01T07:24:20.724Z,87.85
2022-12-01T07:26:48.393Z,87.74
2022-12-01T07:29:15.534Z,88.06
2022-12-01T07:31:42.956Z,87.35
2022-12-01T07:34:13.258Z,87.36
2022-12-01T07:36:40.405Z,87.47
2022-12-01T07:39:08.895Z,87.42
2022-12-01T07:41:36.420Z,87.86
2022-12-01T07:44:03.757Z,87.69
2022-12-01T07:46:31.979Z,87.68
2022-12-01T07:48:59.605Z,87.53
2022-12-01T07:51:27.476Z,87.74
2022-12-01T07:53:55.460Z,88.00
2022-12-01T07:56:23.404Z,88.29
2022-12-01T07:58:50.634Z,88.27
2022-12-01T08:01:20.516Z,88.51
2022-12-01T08:03:52.734Z,88.83
2022-12-01T08:06:20.545Z,88.65
2022-12-01T08:08:48.168Z,88.63
2022-12-01T08:11:20.715Z,89.01
2022-12-01T08:13:48.297Z,89.36
2022-12-01T08:16:17.053Z,89.22
2022-12-01T08:18:44.854Z,89.08
2022-12-01T08:21:15.548Z,89.18
2022-12-01T08:23:43.499Z,89.05
2022-12-01T08:26:15.934Z,89.13
2022-12-01T08:28:43.989Z,88.99
2022-12-01T08:31:16.040Z,88.67
2022-12-01T08:33:43.223Z,88.45
2022-12-01T08:36:10.474Z,88.57
2022-12-01T08:38:37.522Z,88.47
2022-12-01T08:41:09.519Z,88.44
2022-12-01T08:46:28.802Z,88.29
2022-12-01T08:48:57.682Z,88.10
2022-12-01T08:51:25.646Z,88.25
2022-12-01T08:53:53.251Z,88.37
2022-12-01T08:56:24.422Z,88.53
2022-12-01T08:58:51.846Z,88.50
2022-12-01T09:01:19.859Z,88.13
2022-12-01T09:03:47.062Z,88.14
2022-12-01T09:06:23.325Z,88.21
2022-12-01T09:08:50.408Z,88.65
2022-12-01T09:11:19.249Z,88.52
2022-12-01T09:13:52.986Z,88.39
2022-12-01T09:16:22.125Z,88.36
2022-12-01T09:18:49.421Z,88.27
2022-12-01T09:21:19.887Z,87.92
2022-12-01T09:23:47.696Z,87.80
2022-12-01T09:26:18.682Z,87.10
2022-12-01T09:29:08.406Z,87.01
2022-12-01T09:31:38.718Z,87.25
2022-12-01T09:34:08.566Z,86.95
2022-12-01T09:36:37.038Z,85.96
2022-12-01T09:39:05.846Z,85.84
2022-12-01T09:41:38.941Z,85.48
2022-12-01T09:44:24.439Z,85.16
2022-12-01T09:47:03.076Z,85.12
2022-12-01T09:49:56.370Z,84.82
2022-12-01T09:52:26.411Z,84.98
2022-12-01T09:54:55.381Z,85.00
2022-12-01T09:57:36.631Z,84.57
2022-12-01T10:00:14.773Z,84.77
2022-12-01T10:03:09.753Z,84.83
2022-12-01T10:06:10.413Z,85.00
2022-12-01T10:08:38.376Z,84.62
2022-12-01T10:11:13.516Z,84.24
2022-12-01T10:13:43.665Z,84.21
2022-12-01T10:16:19.471Z,84.06
2022-12-01T10:19:06.022Z,84.25
2022-12-01T10:21:55.182Z,84.32
2022-12-01T10:24:52.705Z,84.36
2022-12-01T10:28:13.867Z,84.41
2022-12-01T10:30:49.986Z,84.46
2022-12-01T10:33:23.969Z,84.59
2022-12-01T10:35:51.355Z,84.61
2022-12-01T10:38:47.703Z,84.44
2022-12-01T10:41:18.759Z,84.47
2022-12-01T10:43:49.481Z,84.63
2022-12-01T10:46:27.398Z,84.37
2022-12-01T10:48:57.078Z,84.43
2022-12-01T10:51:26.147Z,84.01
2022-12-01T10:54:13.261Z,83.74
2022-12-01T10:56:41.989Z,83.71
2022-12-01T10:59:32.215Z,82.96
2022-12-01T11:02:01.634Z,83.09
2022-12-01T11:04:42.554Z,83.33
2022-12-01T11:07:16.881Z,83.25
2022-12-01T11:09:46.166Z,82.95
2022-12-01T11:12:17.349Z,83.10
2022-12-01T11:14:44.258Z,83.15
2022-12-01T11:17:31.356Z,83.06
2022-12-01T11:19:59.304Z,82.94
2022-12-01T11:22:30.459Z,83.17
2022-12-01T11:25:18.548Z,82.79
2022-12-01T11:27:57.673Z,83.07
2022-12-01T11:30:26.112Z,83.10
2022-12-01T11:33:02.210Z,83.55
2022-12-01T11:35:37.800Z,83.40
2022-12-01T11:38:28.690Z,83.64
2022-12-01T11:40:56.454Z,83.71
2022-12-01T11:43:26.253Z,83.80
2022-12-01T11:45:56.090Z,83.80
2022-12-01T11:48:24.340Z,83.92
2022-12-01T11:51:27.292Z,84.30
2022-12-01T11:54:14.824Z,84.51
2022-12-01T11:56:44.211Z,84.30
2022-12-01T11:59:26.027Z,84.23
2022-12-01T12:02:24.074Z,84.88
2022-12-01T12:05:38.759Z,84.98
2022-12-01T12:08:30.429Z,85.02
2022-12-01T12:11:22.051Z,85.45
2022-12-01T12:13:49.177Z,85.62
2022-12-01T12:16:27.469Z,85.72
2022-12-01T12:19:15.715Z,85.73
2022-12-01T12:22:02.097Z,86.21
2022-12-01T12:24:58.456Z,86.70
2022-12-01T12:27:34.548Z,86.72
2022-12-01T12:30:21.570Z,86.19
2022-12-01T12:33:22.901Z,86.53
2022-12-01T12:36:13.696Z,86.10
2022-12-01T12:38:59.823Z,86.06
2022-12-01T12:41:41.333Z,86.52
2022-12-01T12:44:56.428Z,86.57
2022-12-01T12:47:49.507Z,87.24
2022-12-01T12:50:35.660Z,87.31
2022-12-01T12:53:10.294Z,87.45
2022-12-01T12:55:46.122Z,87.51
2022-12-01T12:58:21.954Z,87.96
2022-12-01T13:00:57.043Z,88.25
2022-12-01T13:03:51.047Z,88.36
2022-12-01T13:06:36.198Z,87.96
2022-12-01T13:09:11.614Z,88.08
2022-12-01T13:11:46.670Z,87.86
2022-12-01T13:14:18.233Z,88.27
2022-12-01T13:16:51.882Z,87.98
2022-12-01T13:19:30.999Z,87.96
2022-12-01T13:21:59.979Z,88.24
2022-12-01T13:24:29.779Z,88.30
2022-12-01T13:27:06.031Z,88.45
2022-12-01T13:29:43.822Z,88.35
2022-12-01T13:32:28.724Z,88.48
2022-12-01T13:34:55.977Z,88.49
2022-12-01T13:37:32.069Z,88.04
2022-12-01T13:40:22.989Z,87.90
2022-12-01T13:43:10.774Z,88.42
2022-12-01T13:45:40.088Z,88.16
2022-12-01T13:48:27.698Z,88.93
2022-12-01T13:50:55.368Z,88.85
2022-12-01T13:53:36.256Z,88.13
2022-12-01T13:56:03.439Z,88.32
2022-12-01T13:58:34.429Z,88.17
2022-12-01T14:01:20.874Z,88.55
2022-12-01T14:04:20.676Z,88.58
2022-12-01T14:06:50.432Z,88.59
2022-12-01T14:09:33.554Z,88.67
2022-12-01T14:12:04.081Z,88.58
2022-12-01T14:14:44.702Z,88.26
2022-12-01T14:17:27.943Z,87.94
2022-12-01T14:20:07.121Z,88.10
2022-12-01T14:22:34.276Z,88.53
2022-12-01T14:25:03.208Z,88.35
2022-12-01T14:27:42.212Z,87.39
2022-12-01T14:30:50.277Z,87.53
2022-12-01T14:33:39.319Z,88.03
2022-12-01T14:36:27.286Z,88.23
2022-12-01T14:38:57.334Z,88.67
2022-12-01T14:41:31.026Z,89.11
2022-12-01T14:44:06.050Z,89.22
2022-12-01T14:46:48.571Z,89.45
2022-12-01T14:49:50.916Z,89.46
2022-12-01T14:52:24.457Z,89.07
2022-12-01T14:54:53.001Z,87.35
2022-12-01T14:57:25.839Z,86.70
2022-12-01T15:00:17.937Z,86.12
2022-12-01T15:03:09.696Z,86.26
2022-12-01T15:05:44.198Z,86.89
2022-12-01T15:08:40.970Z,87.10
2022-12-01T15:11:13.313Z,86.98
2022-12-01T15:13:53.748Z,88.02
2022-12-01T15:16:24.034Z,88.78
2022-12-01T15:18:51.241Z,89.17
2022-12-01T15:21:20.013Z,89.73
2022-12-01T15:24:22.515Z,90.50
2022-12-01T15:26:52.328Z,90.76
2022-12-01T15:29:24.880Z,91.13
2022-12-01T15:32:05.223Z,91.12
2022-12-01T15:34:37.419Z,90.97
2022-12-01T15:37:10.745Z,90.94
2022-12-01T15:39:44.514Z,90.71
2022-12-01T15:42:23.937Z,90.99
2022-12-01T15:45:16.026Z,91.11
2022-12-01T15:47:43.895Z,91.43
2022-12-01T15:50:46.550Z,91.27
2022-12-01T15:53:30.041Z,91.28
2022-12-01T15:55:59.342Z,91.04
2022-12-01T15:59:03.409Z,91.02
2022-12-01T16:01:32.048Z,90.66
2022-12-01T16:04:04.414Z,90.78
2022-12-01T16:06:38.693Z,90.95
2022-12-01T16:09:28.248Z,90.62
2022-12-01T16:12:16.047Z,89.75
2022-12-01T16:15:18.495Z,89.57
2022-12-01T16:17:48.694Z,89.56
2022-12-01T16:20:31.968Z,89.95
2022-12-01T16:23:02.859Z,89.76
2022-12-01T16:25:35.118Z,90.19
2022-12-01T16:28:03.679Z,90.21
2022-12-01T16:30:37.290Z,90.47
2022-12-01T16:33:13.488Z,89.55
2022-12-01T16:35:40.778Z,89.65
2022-12-01T16:38:20.576Z,89.65
2022-12-01T16:40:57.008Z,89.15
2022-12-01T16:43:26.134Z,89.23
2022-12-01T16:46:04.693Z,89.52
2022-12-01T16:48:32.199Z,89.32
2022-12-01T16:51:03.306Z,88.49
2022-12-01T16:53:30.694Z,88.54
2022-12-01T16:56:00.309Z,88.39
2022-12-01T16:58:28.002Z,88.34
2022-12-01T17:00:55.261Z,88.34
2022-12-01T17:03:25.639Z,87.95
2022-12-01T17:05:54.041Z,88.08
2022-12-01T17:08:21.747Z,88.08
2022-12-01T17:10:50.383Z,88.27
2022-12-01T17:13:18.672Z,87.70
2022-12-01T17:15:48.638Z,87.89
2022-12-01T17:18:17.939Z,87.88
2022-12-01T17:20:55.798Z,88.04
2022-12-01T17:23:22.943Z,87.65
2022-12-01T17:25:49.975Z,87.97
2022-12-01T17:28:18.533Z,88.09
2022-12-01T17:30:45.873Z,88.17
2022-12-01T17:33:13.352Z,88.07
2022-12-01T17:35:42.325Z,87.92
2022-12-01T17:38:10.083Z,87.37
2022-12-01T17:40:37.143Z,87.33
2022-12-01T17:43:08.412Z,87.11
2022-12-01T17:45:41.966Z,87.52
2022-12-01T17:48:09.443Z,87.73
2022-12-01T17:50:38.372Z,87.79
2022-12-01T17:53:05.699Z,88.45
2022-12-01T17:55:40.727Z,88.20
2022-12-01T17:58:07.779Z,87.82
2022-12-01T18:00:36.493Z,87.88
2022-12-01T18:03:03.660Z,88.08
2022-12-01T18:05:30.949Z,88.26
2022-12-01T18:07:57.948Z,88.36
2022-12-01T18:10:25.284Z,88.35
2022-12-01T18:12:53.100Z,88.05
2022-12-01T18:15:20.343Z,88.26
2022-12-01T18:17:53.076Z,88.64
2022-12-01T18:20:20.714Z,88.23
2022-12-01T18:22:48.623Z,88.06
2022-12-01T18:25:15.742Z,87.86
2022-12-01T18:27:43.111Z,87.71
2022-12-01T18:30:10.827Z,87.36
2022-12-01T18:32:38.176Z,87.56
2022-12-01T18:35:07.506Z,87.35
2022-12-01T18:37:40.501Z,87.07
2022-12-01T18:40:08.768Z,86.96
2022-12-01T18:42:35.856Z,86.76
2022-12-01T18:45:03.869Z,86.66
2022-12-01T18:47:31.713Z,86.66
2022-12-01T18:49:58.954Z,86.79
2022-12-01T18:52:26.349Z,86.90
2022-12-01T18:54:54.016Z,87.20
2022-12-01T18:57:21.537Z,87.53
2022-12-01T18:59:48.581Z,87.21
2022-12-01T19:02:16.210Z,87.34
2022-12-01T19:04:43.787Z,87.34
2022-12-01T19:07:11.338Z,87.27
2022-12-01T19:09:38.670Z,87.03
2022-12-01T19:12:09.526Z,86.51
2022-12-01T19:14:37.994Z,86.58
2022-12-01T19:17:06.430Z,86.60
2022-12-01T19:19:37.448Z,86.48
2022-12-01T19:22:05.469Z,86.24
2022-12-01T19:24:32.734Z,86.11
2022-12-01T19:27:00.173Z,86.29
2022-12-01T19:29:28.533Z,85.97
2022-12-01T19:31:56.322Z,85.91
2022-12-01T19:34:24.469Z,85.93
2022-12-01T19:36:53.752Z,86.11
2022-12-01T19:39:21.570Z,86.03
2022-12-01T19:41:49.563Z,85.78
2022-12-01T19:44:17.657Z,85.68
2022-12-01T19:46:45.981Z,85.96
2022-12-01T19:49:13.513Z,85.81
2022-12-01T19:51:41.319Z,85.87
2022-12-01T19:54:13.702Z,85.58
2022-12-01T19:56:46.447Z,85.57
2022-12-01T19:59:16.041Z,85.98
2022-12-01T20:01:43.199Z,85.83
2022-12-01T20:04:10.599Z,85.90
2022-12-01T20:06:38.031Z,85.68
2022-12-01T20:09:07.209Z,85.41
2022-12-01T20:11:35.468Z,85.11
2022-12-01T20:14:05.230Z,85.43
2022-12-01T20:16:32.592Z,85.08
2022-12-01T20:19:02.682Z,85.11
2022-12-01T20:21:32.839Z,85.23
2022-12-01T20:24:06.461Z,84.98
2022-12-01T20:26:41.584Z,84.64
2022-12-01T20:29:12.298Z,84.71
2022-12-01T20:31:40.125Z,84.02
2022-12-01T20:34:16.500Z,84.15
2022-12-01T20:36:44.125Z,84.28
2022-12-01T20:39:12.163Z,84.46
2022-12-01T20:41:41.021Z,84.09
2022-12-01T20:44:10.211Z,84.14
2022-12-01T20:46:41.123Z,83.50
2022-12-01T20:49:08.778Z,82.98
2022-12-01T20:51:36.013Z,82.57
2022-12-01T20:54:27.284Z,82.79
2022-12-01T20:56:53.297Z,83.19
2022-12-01T20:59:20.614Z,83.35
2022-12-01T21:01:47.796Z,83.50
2022-12-01T21:04:14.965Z,83.30
2022-12-01T21:06:42.363Z,82.30
2022-12-01T21:09:09.625Z,82.30
2022-12-01T21:12:07.506Z,82.45
2022-12-01T21:14:43.568Z,82.28
2022-12-01T21:17:33.577Z,81.76
2022-12-01T21:20:18.183Z,81.31
2022-12-01T21:22:46.538Z,81.53
2022-12-01T21:25:19.011Z,81.89
2022-12-01T21:27:47.602Z,82.30
2022-12-01T21:30:25.894Z,81.89
2022-12-01T21:32:54.433Z,81.66
2022-12-01T21:35:25.007Z,81.79
2022-12-01T21:38:00.012Z,81.64
2022-12-01T21:40:28.577Z,82.04
2022-12-01T21:43:01.293Z,82.14
2022-12-01T21:45:32.292Z,82.38
2022-12-01T21:48:25.536Z,82.14
2022-12-01T21:51:01.845Z,81.91
2022-12-01T21:53:40.188Z,81.84
2022-12-01T21:56:20.077Z,82.12
2022-12-01T21:58:48.043Z,81.90
2022-12-01T22:01:31.062Z,81.77
2022-12-01T22:04:10.983Z,81.76
2022-12-01T22:06:40.697Z,81.79
2022-12-01T22:09:24.897Z,81.96
2022-12-01T22:11:58.628Z,82.11
2022-12-01T22:14:43.937Z,82.51
2022-12-01T22:17:10.927Z,82.56
2022-12-01T22:19:42.363Z,82.62
2022-12-01T22:22:09.335Z,82.19
2022-12-01T22:24:48.963Z,81.91
2022-12-01T22:27:29.039Z,82.02
2022-12-01T22:30:06.113Z,82.24
2022-12-01T22:32:37.641Z,82.70
2022-12-01T22:35:28.559Z,82.74
2022-12-01T22:37:59.513Z,82.14
2022-12-01T22:40:43.050Z,82.51
2022-12-01T22:43:16.042Z,82.10
2022-12-01T22:45:49.606Z,82.30
2022-12-01T22:48:28.718Z,82.18
2022-12-01T22:50:55.807Z,81.29
2022-12-01T22:53:31.858Z,81.41
2022-12-01T22:56:01.010Z,80.73
2022-12-01T22:58:35.277Z,80.49
2022-12-01T23:01:15.100Z,80.87
2022-12-01T23:03:42.629Z,81.96
2022-12-01T23:06:48.241Z,81.96
2022-12-01T23:09:16.023Z,82.53
2022-12-01T23:11:44.094Z,83.21
2022-12-01T23:14:19.552Z,83.57
2022-12-01T23:16:46.745Z,83.48
2022-12-01T23:19:14.065Z,83.90
2022-12-01T23:21:41.189Z,84.20
2022-12-01T23:24:10.959Z,84.30
2022-12-01T23:26:37.986Z,83.52
2022-12-01T23:29:05.051Z,83.24
2022-12-01T23:31:32.442Z,83.31
2022-12-01T23:33:59.590Z,83.21
2022-12-01T23:36:29.179Z,83.65
2022-12-01T23:39:01.389Z,83.75
2022-12-01T23:41:33.962Z,83.89
2022-12-01T23:44:18.842Z,83.70
2022-12-01T23:46:47.556Z,83.67
2022-12-01T23:49:18.789Z,83.39
2022-12-01T23:51:50.823Z,83.60
2022-12-01T23:54:26.701Z,83.58
2022-12-01T23:56:57.183Z,83.39
2022-12-01T23:59:25.327Z,83.40
